createdAt,value
2023-02-01T06:44:46.017Z,66.62
2023-02-01T06:49:48.086Z,66.65
2023-02-01T06:54:50.084Z,66.50
2023-02-01T06:59:52.172Z,66.59
2023-02-01T07:05:27.613Z,66.53
2023-02-01T07:11:16.319Z,66.37
2023-02-01T07:16:20.182Z,66.40
2023-02-01T07:21:36.360Z,66.50
2023-02-01T07:26:58.465Z,66.40
2023-02-01T07:32:13.681Z,66.53
2023-02-01T07:37:16.979Z,66.38
2023-02-01T07:42:22.073Z,66.44
2023-02-01T07:47:24.197Z,66.46
2023-02-01T07:52:30.921Z,66.47
2023-02-01T07:57:32.893Z,66.31
2023-02-01T08:02:37.789Z,66.42
2023-02-01T08:07:39.883Z,66.37
2023-02-01T08:12:44.046Z,66.44
2023-02-01T08:18:00.165Z,66.43
2023-02-01T08:23:07.590Z,66.25
2023-02-01T08:34:35.694Z,66.23
2023-02-01T08:56:00.559Z,66.23
2023-02-01T09:01:28.376Z,66.29
2023-02-01T09:06:40.785Z,66.22
2023-02-01T09:12:06.191Z,66.23
2023-02-01T09:17:09.970Z,66.35
2023-02-01T09:28:45.686Z,66.66
2023-02-01T09:33:55.033Z,66.50
2023-02-01T09:39:07.457Z,66.53
2023-02-01T09:44:46.839Z,66.39
2023-02-01T09:50:06.998Z,66.55
2023-02-01T09:55:26.466Z,66.32
2023-02-01T10:23:40.130Z,66.48
2023-02-01T10:28:42.823Z,66.28
2023-02-01T10:33:50.264Z,66.35
2023-02-01T10:38:53.551Z,66.50
2023-02-01T10:49:39.284Z,66.29
2023-02-01T10:54:41.225Z,66.36
2023-02-01T10:59:48.788Z,66.29
2023-02-01T11:04:59.148Z,66.66
2023-02-01T11:10:06.711Z,66.49
2023-02-01T11:15:23.961Z,66.51
2023-02-01T11:20:47.220Z,66.48
2023-02-01T11:26:27.860Z,66.45
2023-02-01T11:32:27.667Z,66.44
2023-02-01T11:43:52.711Z,66.52
2023-02-01T11:48:54.946Z,66.56
2023-02-01T11:54:40.198Z,66.47
2023-02-01T12:06:25.962Z,66.69
2023-02-01T12:11:59.403Z,66.59
2023-02-01T12:17:23.368Z,66.57
2023-02-01T12:28:24.717Z,66.67
2023-02-01T12:33:38.756Z,66.65
2023-02-01T12:38:46.011Z,66.68
2023-02-01T12:44:05.711Z,66.66
2023-02-01T12:49:36.354Z,66.65
2023-02-01T12:54:50.548Z,66.69
2023-02-01T13:00:21.974Z,66.65
2023-02-01T13:05:36.232Z,66.73
2023-02-01T13:16:58.754Z,66.72
2023-02-01T13:22:16.483Z,66.81
2023-02-01T13:27:18.331Z,66.73
2023-02-01T13:39:21.799Z,66.83
2023-02-01T13:44:45.464Z,67.05
2023-02-01T13:49:56.469Z,66.73
2023-02-01T14:05:51.821Z,66.89
2023-02-01T14:10:57.681Z,66.78
2023-02-01T14:32:57.951Z,66.77
2023-02-01T14:38:08.939Z,66.96
2023-02-01T14:43:32.987Z,66.80
2023-02-01T14:49:16.010Z,66.77
2023-02-01T14:54:20.943Z,66.84
2023-02-01T14:59:23.439Z,66.87
2023-02-01T15:04:29.144Z,67.02
2023-02-01T15:09:39.911Z,67.00
2023-02-01T15:14:42.152Z,66.96
2023-02-01T15:25:36.894Z,67.04
2023-02-01T15:36:20.858Z,66.94
2023-02-01T15:41:30.579Z,67.00
2023-02-01T15:46:40.941Z,66.91
2023-02-01T15:51:50.530Z,66.85
2023-02-01T15:57:00.170Z,67.05
2023-02-01T16:02:05.004Z,67.10
2023-02-01T16:07:24.918Z,67.01
2023-02-01T16:12:34.940Z,67.01
2023-02-01T16:17:39.944Z,66.86
2023-02-01T16:28:07.900Z,67.12
2023-02-01T16:38:56.770Z,66.87
2023-02-01T16:44:28.412Z,66.87
2023-02-01T16:50:06.137Z,67.07
2023-02-01T16:55:48.882Z,67.21
2023-02-01T17:23:21.752Z,67.02
2023-02-01T17:50:52.586Z,67.07
2023-02-01T17:56:15.634Z,66.90
2023-02-01T18:01:45.158Z,67.03
2023-02-01T18:12:32.298Z,67.04
2023-02-01T18:23:30.278Z,67.18
2023-02-01T18:28:47.221Z,67.13
2023-02-01T18:33:56.679Z,67.15
2023-02-01T18:39:02.457Z,67.20
2023-02-01T18:44:13.495Z,67.00
2023-02-01T18:49:27.703Z,67.04
2023-02-01T18:54:33.923Z,67.14
2023-02-01T18:59:45.399Z,66.95
2023-02-01T19:05:09.660Z,67.19
2023-02-01T19:10:20.873Z,67.09
2023-02-01T19:15:30.664Z,67.03
2023-02-01T19:20:39.373Z,67.13
2023-02-01T19:25:47.139Z,67.15
2023-02-01T19:31:18.492Z,67.22
2023-02-01T19:36:28.567Z,67.19
2023-02-01T19:41:41.803Z,67.09
2023-02-01T19:46:46.167Z,67.15
2023-02-01T19:58:00.000Z,67.39
2023-02-01T20:03:33.609Z,67.13
2023-02-01T20:36:42.301Z,67.09
2023-02-01T20:41:50.071Z,67.20
2023-02-01T20:47:06.470Z,67.22
2023-02-01T20:52:16.879Z,67.28
2023-02-01T20:57:20.917Z,67.24
2023-02-01T21:02:29.361Z,67.20
2023-02-01T21:07:37.667Z,67.34
2023-02-01T21:12:45.726Z,67.10
2023-02-01T21:17:47.695Z,67.09
2023-02-01T21:22:49.676Z,67.27
2023-02-01T21:28:03.924Z,67.10
2023-02-01T21:33:05.982Z,67.21
2023-02-01T21:38:07.865Z,67.22
2023-02-01T21:43:12.610Z,67.21
2023-02-01T21:48:17.433Z,67.15
2023-02-01T21:53:19.399Z,67.26
2023-02-01T21:58:28.430Z,67.23
2023-02-01T22:03:32.646Z,67.18
2023-02-01T22:08:40.467Z,67.16
2023-02-01T22:13:44.990Z,67.20
2023-02-01T22:24:24.239Z,67.22
2023-02-01T22:29:53.879Z,67.31
2023-02-01T22:46:30.552Z,67.08
2023-02-01T22:51:55.747Z,67.26
2023-02-01T22:57:21.925Z,67.13
2023-02-01T23:20:18.750Z,67.44
2023-02-01T23:25:54.695Z,67.24
2023-02-01T23:32:29.835Z,67.16
2023-02-01T23:36:57.994Z,67.17
2023-02-01T23:42:58.465Z,67.23
2023-02-01T23:53:36.656Z,67.20
2023-02-01T23:58:47.668Z,67.30
